Time;durP1;ratioP1;P1;durP2;ratioP2;P2;SDS_P1;SDS_P2;PMS_P1;PMS_P2;Temp;Humidity;BMP_temperature;BMP_pressure;BME280_temperature;BME280_humidity;BME280_pressure;Samples;Min_cycle;Max_cycle;Signal;HPM_P1;HPM_P2
2022/08/22 00:00:22;;;;;;;7.78;1.92;;;13.10;99.90;;;;;;4928768;29;20031;-57
2022/08/22 00:03:02;;;;;;;6.72;1.63;;;13.10;99.90;;;;;;4928709;29;20078;-57
2022/08/22 00:05:39;;;;;;;12.00;1.90;;;13.10;99.90;;;;;;4940758;29;20066;-57
2022/08/22 00:08:10;;;;;;;4.18;1.60;;;13.20;99.90;;;;;;4927037;29;20035;-57
2022/08/22 00:10:47;;;;;;;5.75;1.98;;;13.10;99.90;;;;;;4930302;29;20063;-57
2022/08/22 00:13:17;;;;;;;14.73;2.72;;;13.20;99.90;;;;;;4931529;29;20039;-57
2022/08/22 00:15:51;;;;;;;5.80;1.83;;;13.20;99.90;;;;;;4966575;28;20089;-57
2022/08/22 00:18:27;;;;;;;9.25;1.70;;;13.20;99.90;;;;;;4971052;28;20039;-57
2022/08/22 00:21:02;;;;;;;4.47;1.85;;;13.20;99.90;;;;;;4974214;28;20035;-57
2022/08/22 00:23:31;;;;;;;7.22;1.30;;;13.20;99.90;;;;;;4968081;28;20023;-57
2022/08/22 00:26:14;;;;;;;6.88;2.55;;;13.10;99.90;;;;;;4978496;28;20026;-58
2022/08/22 00:28:47;;;;;;;5.78;2.05;;;13.10;99.90;;;;;;4974314;28;20117;-57
2022/08/22 00:31:34;;;;;;;6.40;2.45;;;12.90;99.90;;;;;;4977069;28;20129;-57
2022/08/22 00:34:08;;;;;;;7.20;2.90;;;12.90;99.90;;;;;;4973576;28;20058;-56
2022/08/22 00:36:54;;;;;;;7.07;2.45;;;12.90;99.90;;;;;;4974380;28;20035;-58
2022/08/22 00:39:45;;;;;;;5.05;2.72;;;12.80;99.90;;;;;;4970481;28;20038;-58
2022/08/22 00:42:45;;;;;;;8.70;3.35;;;12.80;99.90;;;;;;4974330;28;20128;-58
2022/08/22 00:45:32;;;;;;;7.85;4.63;;;12.70;99.90;;;;;;4978072;28;20081;-58
2022/08/22 00:48:40;;;;;;;4.80;3.67;;;12.50;99.90;;;;;;4981009;28;20030;-57
2022/08/22 00:51:30;;;;;;;5.75;3.50;;;12.50;99.90;;;;;;4968531;28;20388;-57
2022/08/22 00:54:10;;;;;;;13.25;5.75;;;12.40;99.90;;;;;;4973921;28;20094;-57
2022/08/22 00:56:36;;;;;;;11.00;4.90;;;12.40;99.90;;;;;;4978663;28;20057;-58
2022/08/22 00:59:21;;;;;;;7.40;4.72;;;12.30;99.90;;;;;;4973206;28;20474;-58
2022/08/22 01:02:00;;;;;;;8.77;4.80;;;12.30;99.90;;;;;;4965312;28;20089;-58
2022/08/22 01:04:40;;;;;;;7.50;2.92;;;12.20;99.90;;;;;;4973661;28;20023;-58
2022/08/22 01:07:27;;;;;;;8.43;5.05;;;12.20;99.90;;;;;;4972735;28;20062;-58
2022/08/22 01:10:22;;;;;;;9.48;4.35;;;12.10;99.90;;;;;;4972641;28;20038;-58
2022/08/22 01:13:12;;;;;;;10.13;5.20;;;12.00;99.90;;;;;;4971812;28;20077;-58
2022/08/22 01:15:39;;;;;;;8.35;4.60;;;12.00;99.90;;;;;;4973778;28;20458;-58
2022/08/22 01:18:05;;;;;;;8.13;4.63;;;12.00;99.90;;;;;;4978985;28;20027;-58
2022/08/22 01:20:54;;;;;;;12.68;4.53;;;11.90;99.90;;;;;;4979916;28;20090;-58
2022/08/22 01:23:26;;;;;;;9.50;4.88;;;11.90;99.90;;;;;;4976709;28;20073;-58
2022/08/22 01:26:16;;;;;;;8.68;4.10;;;11.90;99.90;;;;;;4966738;28;20035;-58
2022/08/22 01:29:16;;;;;;;7.57;2.88;;;11.90;99.90;;;;;;4964204;28;20478;-58
2022/08/22 01:32:10;;;;;;;5.95;2.13;;;12.00;99.90;;;;;;4983871;28;20601;-58
2022/08/22 01:34:57;;;;;;;4.57;1.70;;;12.00;99.90;;;;;;4982304;28;20042;-58
2022/08/22 01:38:18;;;;;;;6.43;1.95;;;11.90;99.90;;;;;;4976368;28;20109;-58
2022/08/22 01:41:11;;;;;;;8.73;3.80;;;12.00;99.90;;;;;;4960599;28;20125;-58
2022/08/22 01:43:37;;;;;;;15.30;4.45;;;12.00;99.90;;;;;;4970868;28;20383;-58
2022/08/22 01:46:21;;;;;;;10.32;3.38;;;11.90;99.90;;;;;;4975938;28;20038;-58
2022/08/22 01:49:16;;;;;;;9.88;2.53;;;11.90;99.90;;;;;;4978965;28;20503;-58
2022/08/22 01:51:44;;;;;;;8.07;3.50;;;11.90;99.90;;;;;;4978496;28;20032;-58
2022/08/22 01:54:48;;;;;;;6.90;3.72;;;11.90;99.90;;;;;;4975231;28;20129;-58
2022/08/22 01:57:16;;;;;;;6.18;3.00;;;12.00;99.90;;;;;;4956606;28;20036;-58
2022/08/22 01:59:51;;;;;;;7.53;3.38;;;12.00;99.90;;;;;;4967103;28;20030;-58
2022/08/22 02:02:35;;;;;;;6.97;2.85;;;12.10;99.90;;;;;;4969471;28;20478;-58
2022/08/22 02:05:16;;;;;;;6.93;2.45;;;12.20;99.90;;;;;;4978778;28;20030;-58
2022/08/22 02:07:59;;;;;;;4.90;2.60;;;12.10;99.90;;;;;;4978701;28;20026;-58
2022/08/22 02:10:51;;;;;;;9.10;2.78;;;12.20;99.90;;;;;;4974641;28;20097;-58
2022/08/22 02:13:27;;;;;;;9.13;3.40;;;12.20;99.90;;;;;;4965705;28;20035;-58
2022/08/22 02:16:15;;;;;;;6.97;3.42;;;12.20;99.90;;;;;;4980440;28;20040;-58
2022/08/22 02:18:55;;;;;;;7.85;3.67;;;12.10;99.90;;;;;;4980324;28;20042;-58
2022/08/22 02:21:41;;;;;;;7.53;3.25;;;12.10;99.90;;;;;;4991105;28;20041;-58
2022/08/22 02:24:26;;;;;;;4.05;2.40;;;12.20;99.90;;;;;;4967227;28;20062;-58
2022/08/22 02:27:32;;;;;;;4.93;2.28;;;12.20;99.90;;;;;;4968182;28;20170;-58
2022/08/22 02:30:18;;;;;;;4.65;2.45;;;12.20;99.90;;;;;;4978930;28;20081;-58
2022/08/22 02:33:01;;;;;;;9.20;2.92;;;12.10;99.90;;;;;;4979755;28;20561;-58
2022/08/22 02:35:45;;;;;;;6.63;4.00;;;12.10;99.90;;;;;;4979033;28;20049;-58
2022/08/22 02:38:20;;;;;;;8.60;3.70;;;12.20;99.90;;;;;;4975082;28;20057;-58
2022/08/22 02:41:13;;;;;;;5.35;3.40;;;12.10;99.90;;;;;;4976970;28;20474;-58
2022/08/22 02:43:58;;;;;;;8.00;3.55;;;12.10;99.90;;;;;;4980047;28;20026;-58
2022/08/22 02:46:39;;;;;;;7.40;4.18;;;12.10;99.90;;;;;;4974149;28;20042;-58
2022/08/22 02:49:24;;;;;;;7.65;4.40;;;12.10;99.90;;;;;;4974482;28;20440;-58
2022/08/22 02:52:31;;;;;;;5.68;4.15;;;12.00;99.90;;;;;;4974379;28;20069;-58
2022/08/22 02:55:23;;;;;;;6.15;4.00;;;12.10;99.90;;;;;;4961500;28;20035;-58
2022/08/22 02:58:08;;;;;;;4.82;3.40;;;12.00;99.90;;;;;;4977239;28;20042;-58
2022/08/22 03:01:20;;;;;;;5.55;3.05;;;12.00;99.90;;;;;;4969510;28;20031;-58
2022/08/22 03:03:46;;;;;;;;;;;12.10;99.90;;;;;;4977572;28;20080;-58
2022/08/22 03:06:37;;;;;;;7.85;3.97;;;12.00;99.90;;;;;;4979187;28;19910;-58
2022/08/22 03:09:14;;;;;;;5.82;3.30;;;12.00;99.90;;;;;;4971514;28;20471;-58
2022/08/22 03:11:47;;;;;;;5.60;3.50;;;12.00;99.90;;;;;;4973508;28;20147;-58
2022/08/22 03:14:32;;;;;;;8.05;3.60;;;12.00;99.90;;;;;;4978722;28;20034;-58
2022/08/22 03:17:37;;;;;;;6.53;4.20;;;11.90;99.90;;;;;;4974295;28;20038;-58
2022/08/22 03:20:14;;;;;;;5.50;4.20;;;11.90;99.90;;;;;;4960382;28;20039;-58
2022/08/22 03:22:48;;;;;;;5.93;3.53;;;11.80;99.90;;;;;;4973439;28;20054;-59
2022/08/22 03:25:20;;;;;;;6.38;3.30;;;11.80;99.90;;;;;;4972435;28;20023;-59
2022/08/22 03:27:52;;;;;;;;;;;11.90;99.90;;;;;;4970783;28;20027;-59
2022/08/22 03:30:21;;;;;;;3.30;2.40;;;11.90;99.90;;;;;;4968718;28;19910;-57
2022/08/22 03:32:51;;;;;;;3.53;3.00;;;11.90;99.90;;;;;;4975869;28;20034;-57
2022/08/22 03:35:49;;;;;;;7.63;4.13;;;11.90;99.90;;;;;;4971591;28;20553;-58
2022/08/22 03:38:47;;;;;;;5.22;4.00;;;11.70;99.90;;;;;;4974312;28;20494;-58
2022/08/22 03:41:55;;;;;;;8.07;3.88;;;11.60;99.90;;;;;;4970328;28;20046;-58
2022/08/22 03:44:46;;;;;;;6.57;4.35;;;11.50;99.90;;;;;;4970975;28;20106;-57
2022/08/22 03:47:48;;;;;;;7.80;4.57;;;11.40;99.90;;;;;;4974374;28;20585;-58
2022/08/22 03:50:38;;;;;;;6.10;4.03;;;11.30;99.90;;;;;;4977986;28;20037;-58
2022/08/22 03:53:37;;;;;;;4.35;3.92;;;11.40;99.90;;;;;;4982945;28;20398;-58
2022/08/22 03:56:33;;;;;;;7.32;3.90;;;11.40;99.90;;;;;;4971234;28;20050;-57
2022/08/22 03:59:15;;;;;;;6.80;4.45;;;11.40;99.90;;;;;;4968243;28;20027;-57
2022/08/22 04:01:43;;;;;;;7.50;4.55;;;11.40;99.90;;;;;;4974063;28;20069;-57
2022/08/22 04:04:33;;;;;;;6.78;4.60;;;11.40;99.90;;;;;;4976667;28;20165;-57
2022/08/22 04:07:31;;;;;;;4.15;3.72;;;11.40;99.90;;;;;;4978317;28;20035;-57
2022/08/22 04:10:09;;;;;;;5.05;3.53;;;11.40;99.90;;;;;;4969258;28;20037;-57
2022/08/22 04:12:47;;;;;;;4.53;3.92;;;11.40;99.90;;;;;;4977978;28;20130;-57
2022/08/22 04:15:30;;;;;;;4.82;3.80;;;11.50;99.90;;;;;;4969500;28;20030;-57
2022/08/22 04:17:55;;;;;;;6.53;3.80;;;11.40;99.90;;;;;;4972290;28;20053;-57
2022/08/22 04:20:42;;;;;;;6.18;3.15;;;11.40;99.90;;;;;;4966998;28;20015;-57
2022/08/22 04:23:26;;;;;;;6.45;3.50;;;11.50;99.90;;;;;;4967663;28;20438;-58
2022/08/22 04:26:03;;;;;;;6.97;3.50;;;11.60;99.90;;;;;;4977141;28;20108;-58
2022/08/22 04:28:48;;;;;;;5.80;4.40;;;11.60;99.90;;;;;;4997219;28;20394;-57
2022/08/22 04:31:33;;;;;;;5.45;2.95;;;11.50;99.90;;;;;;4983907;28;20034;-58
2022/08/22 04:34:05;;;;;;;3.72;2.67;;;11.50;99.90;;;;;;4974514;28;20101;-58
2022/08/22 04:36:44;;;;;;;5.03;3.63;;;11.50;99.90;;;;;;4970934;28;20039;-57
2022/08/22 04:39:31;;;;;;;3.67;3.15;;;11.50;99.90;;;;;;4972033;28;20089;-57
2022/08/22 04:42:13;;;;;;;3.63;3.03;;;11.50;99.90;;;;;;4968589;28;20074;-58
2022/08/22 04:44:48;;;;;;;5.20;3.47;;;11.50;99.90;;;;;;4973107;28;20117;-58
2022/08/22 04:47:29;;;;;;;4.05;3.28;;;11.40;99.90;;;;;;4959384;28;20062;-58
2022/08/22 04:50:30;;;;;;;4.18;2.95;;;11.40;99.90;;;;;;4983113;28;20092;-58
2022/08/22 04:53:11;;;;;;;3.33;3.00;;;11.40;99.90;;;;;;4980412;28;20030;-57
2022/08/22 04:55:58;;;;;;;5.05;3.03;;;11.40;99.90;;;;;;4983593;28;20031;-57
2022/08/22 04:58:32;;;;;;;5.63;3.15;;;11.40;99.90;;;;;;4978626;28;20027;-58
2022/08/22 05:01:09;;;;;;;5.35;3.90;;;11.40;99.90;;;;;;4981172;28;20030;-57
2022/08/22 05:03:42;;;;;;;4.53;3.78;;;11.30;99.90;;;;;;4983107;28;20030;-58
2022/08/22 05:06:11;;;;;;;5.32;3.63;;;11.30;99.90;;;;;;4977843;28;20094;-57
2022/08/22 05:08:39;;;;;;;6.18;3.47;;;11.20;99.90;;;;;;4977700;28;20037;-57
2022/08/22 05:11:08;;;;;;;5.53;3.40;;;11.30;99.90;;;;;;4975918;28;20491;-57
2022/08/22 05:13:42;;;;;;;5.82;2.72;;;11.30;99.90;;;;;;4985459;28;20034;-57
2022/08/22 05:16:24;;;;;;;5.20;3.17;;;11.40;99.90;;;;;;4981274;28;20041;-58
2022/08/22 05:18:59;;;;;;;6.15;3.65;;;11.40;99.90;;;;;;4971662;28;20038;-57
2022/08/22 05:21:30;;;;;;;4.95;3.33;;;11.40;99.90;;;;;;4980368;28;20118;-57
2022/08/22 05:24:06;;;;;;;5.63;3.90;;;11.40;99.90;;;;;;4977974;28;20125;-57
2022/08/22 05:26:42;;;;;;;6.68;3.67;;;11.40;99.90;;;;;;4979367;28;20023;-57
2022/08/22 05:29:10;;;;;;;5.63;4.60;;;11.40;99.90;;;;;;4983700;28;20034;-57
2022/08/22 05:31:49;;;;;;;5.47;2.72;;;11.40;99.90;;;;;;4976901;28;20117;-56
2022/08/22 05:34:27;;;;;;;9.20;3.92;;;11.40;99.90;;;;;;4982594;28;20513;-57
2022/08/22 05:37:04;;;;;;;7.70;4.50;;;11.50;99.90;;;;;;4979637;28;20573;-57
2022/08/22 05:39:30;;;;;;;8.57;4.10;;;11.50;99.90;;;;;;4981158;28;20754;-58
2022/08/22 05:42:00;;;;;;;7.43;3.97;;;11.60;99.90;;;;;;4976278;28;20035;-58
2022/08/22 05:44:31;;;;;;;6.28;3.85;;;11.60;99.90;;;;;;4973895;28;20050;-58
2022/08/22 05:47:01;;;;;;;9.00;4.53;;;11.60;99.90;;;;;;4975036;28;20054;-58
2022/08/22 05:49:39;;;;;;;7.43;4.38;;;11.60;99.90;;;;;;4983759;28;20042;-58
2022/08/22 05:52:24;;;;;;;7.57;4.20;;;11.70;99.90;;;;;;4972536;28;20110;-58
2022/08/22 05:54:58;;;;;;;9.63;4.53;;;11.80;99.90;;;;;;4981521;28;20437;-58
2022/08/22 05:58:09;;;;;;;7.03;4.75;;;11.70;99.90;;;;;;4972604;28;20034;-58
2022/08/22 06:00:40;;;;;;;5.65;3.88;;;11.70;99.90;;;;;;4970679;28;20440;-57
2022/08/22 06:03:16;;;;;;;7.10;4.28;;;11.70;99.90;;;;;;4962178;28;20490;-57
2022/08/22 06:05:48;;;;;;;9.45;5.75;;;11.70;99.90;;;;;;4969367;28;20026;-58
2022/08/22 06:08:37;;;;;;;6.63;4.13;;;11.80;99.90;;;;;;4973246;28;20106;-57
2022/08/22 06:11:14;;;;;;;8.68;4.32;;;11.80;99.90;;;;;;4975914;28;20489;-58
2022/08/22 06:13:44;;;;;;;7.28;4.78;;;11.90;99.90;;;;;;4965703;28;20027;-58
2022/08/22 06:16:39;;;;;;;7.93;4.78;;;11.90;99.90;;;;;;4973069;28;20121;-57
2022/08/22 06:19:06;;;;;;;9.25;5.20;;;12.00;99.90;;;;;;4982381;28;20083;-57
2022/08/22 06:21:36;;;;;;;6.43;4.60;;;12.10;99.90;;;;;;4985921;28;20605;-57
2022/08/22 06:24:04;;;;;;;8.27;3.67;;;12.10;99.90;;;;;;4972114;28;20086;-57
2022/08/22 06:26:36;;;;;;;13.73;5.28;;;12.10;99.90;;;;;;4974210;28;20042;-57
2022/08/22 06:29:05;;;;;;;6.95;4.43;;;12.20;99.90;;;;;;4983492;28;20679;-57
2022/08/22 06:31:43;;;;;;;4.60;3.58;;;12.30;99.90;;;;;;4975631;28;20040;-57
2022/08/22 06:34:22;;;;;;;6.32;4.13;;;12.40;99.90;;;;;;4976337;28;20100;-57
2022/08/22 06:36:51;;;;;;;7.55;4.07;;;12.40;99.90;;;;;;4976707;28;20051;-58
2022/08/22 06:39:28;;;;;;;7.75;4.22;;;12.50;99.90;;;;;;4986328;28;20088;-58
2022/08/22 06:42:07;;;;;;;9.25;3.67;;;12.60;99.90;;;;;;4979917;28;20065;-58
2022/08/22 06:44:58;;;;;;;9.75;4.90;;;12.60;99.90;;;;;;4985757;28;20513;-58
2022/08/22 06:47:32;;;;;;;9.85;3.90;;;12.70;99.90;;;;;;4973676;28;20054;-58
2022/08/22 06:50:04;;;;;;;4.95;3.15;;;12.80;99.90;;;;;;4983595;28;20033;-58
2022/08/22 06:52:47;;;;;;;6.55;3.65;;;12.90;99.90;;;;;;4979156;28;20501;-58
2022/08/22 06:55:14;;;;;;;9.77;3.88;;;13.00;99.90;;;;;;4965996;28;20026;-58
2022/08/22 06:57:56;;;;;;;8.15;3.65;;;13.10;99.90;;;;;;4973887;28;20111;-58
2022/08/22 07:00:22;;;;;;;;;;;13.10;99.90;;;;;;4968374;28;20521;-58
2022/08/22 07:02:52;;;;;;;5.82;3.45;;;13.20;99.90;;;;;;4969472;28;19910;-58
2022/08/22 07:05:24;;;;;;;4.15;3.30;;;13.20;99.90;;;;;;4968041;28;20127;-57
2022/08/22 07:07:50;;;;;;;6.10;3.72;;;13.20;99.90;;;;;;4974062;28;20062;-58
2022/08/22 07:10:16;;;;;;;7.18;3.58;;;13.30;99.90;;;;;;4965661;28;20027;-59
2022/08/22 07:12:49;;;;;;;9.80;4.25;;;13.40;99.90;;;;;;4969826;28;20031;-58
2022/08/22 07:15:33;;;;;;;8.40;3.45;;;13.50;99.90;;;;;;4966567;28;20030;-59
2022/08/22 07:18:05;;;;;;;6.72;3.88;;;13.60;99.90;;;;;;4968319;28;20554;-58
2022/08/22 07:20:37;;;;;;;7.22;3.22;;;13.70;99.90;;;;;;4969937;28;20495;-58
2022/08/22 07:23:22;;;;;;;7.32;3.22;;;13.80;99.90;;;;;;4969307;28;20030;-58
2022/08/22 07:26:01;;;;;;;7.40;3.55;;;14.00;99.90;;;;;;4964812;28;20043;-58
2022/08/22 07:29:18;;;;;;;6.50;3.47;;;14.00;99.90;;;;;;4972150;28;20497;-58
2022/08/22 07:32:00;;;;;;;10.23;3.95;;;14.20;99.90;;;;;;4966225;28;20026;-58
2022/08/22 07:35:01;;;;;;;6.07;3.53;;;14.20;99.90;;;;;;4966844;28;20058;-58
2022/08/22 07:37:36;;;;;;;11.60;4.00;;;14.30;99.90;;;;;;4964879;28;20448;-58
2022/08/22 07:40:21;;;;;;;12.25;3.67;;;14.30;99.90;;;;;;4973683;28;20031;-58
2022/08/22 07:43:10;;;;;;;6.18;4.68;;;14.50;99.90;;;;;;4972455;28;20331;-56
2022/08/22 07:45:48;;;;;;;8.23;4.05;;;14.60;99.90;;;;;;4970543;28;20071;-57
2022/08/22 07:48:28;;;;;;;10.40;4.03;;;14.70;99.90;;;;;;4975333;28;20397;-57
2022/08/22 07:51:08;;;;;;;12.73;4.35;;;14.80;99.90;;;;;;4970337;28;20101;-57
2022/08/22 07:53:43;;;;;;;10.07;3.80;;;15.00;99.90;;;;;;4973134;28;20027;-58
2022/08/22 07:56:20;;;;;;;9.18;4.00;;;15.20;99.90;;;;;;4967350;28;20034;-59
2022/08/22 07:58:52;;;;;;;10.27;3.33;;;15.30;99.90;;;;;;4968505;28;20077;-58
2022/08/22 08:01:20;;;;;;;13.13;3.35;;;15.50;99.90;;;;;;4969496;28;20051;-58
2022/08/22 08:03:56;;;;;;;12.45;4.10;;;15.70;99.90;;;;;;4966314;28;20110;-58
2022/08/22 08:06:23;;;;;;;11.88;3.05;;;16.00;99.90;;;;;;4964346;28;20089;-58
2022/08/22 08:08:50;;;;;;;8.88;3.35;;;16.20;99.90;;;;;;4968438;28;20064;-58
2022/08/22 08:11:17;;;;;;;13.82;3.40;;;16.60;99.90;;;;;;4968031;28;20130;-58
2022/08/22 08:13:48;;;;;;;8.73;2.90;;;16.80;99.90;;;;;;4966177;28;20042;-58
2022/08/22 08:16:23;;;;;;;11.05;2.97;;;17.10;99.90;;;;;;4969825;28;20710;-58
2022/08/22 08:18:51;;;;;;;13.45;3.97;;;17.40;99.90;;;;;;4968407;28;20368;-58
2022/08/22 08:21:34;;;;;;;9.05;2.42;;;17.90;99.90;;;;;;4969273;28;20030;-58
2022/08/22 08:24:01;;;;;;;11.05;2.63;;;18.30;99.90;;;;;;4958766;28;20419;-57
2022/08/22 08:26:34;;;;;;;8.77;2.10;;;18.70;99.90;;;;;;4968834;28;20506;-57
2022/08/22 08:29:01;;;;;;;14.25;2.35;;;19.00;99.90;;;;;;4968355;28;20023;-57
2022/08/22 08:31:37;;;;;;;4.25;1.60;;;19.10;99.90;;;;;;4970196;28;20027;-58
2022/08/22 08:34:18;;;;;;;9.88;1.65;;;19.30;99.90;;;;;;4966169;28;20486;-57
2022/08/22 08:36:47;;;;;;;6.68;1.38;;;19.50;99.90;;;;;;4966300;28;20050;-57
2022/08/22 08:39:21;;;;;;;6.47;1.70;;;19.60;99.90;;;;;;4969366;28;20462;-58
2022/08/22 08:42:14;;;;;;;9.45;1.52;;;19.80;99.90;;;;;;4967666;28;20066;-57
2022/08/22 08:45:00;;;;;;;5.10;1.05;;;19.90;99.90;;;;;;4966927;28;20525;-58
2022/08/22 08:47:38;;;;;;;8.55;1.42;;;19.90;99.90;;;;;;4966885;28;20035;-58
2022/08/22 08:50:33;;;;;;;13.38;1.80;;;20.00;99.90;;;;;;4962789;28;20549;-58
2022/08/22 08:53:17;;;;;;;8.63;1.30;;;20.20;99.90;;;;;;4966147;28;20037;-57
2022/08/22 08:56:09;;;;;;;7.00;1.10;;;20.40;99.90;;;;;;4968209;28;20113;-58
2022/08/22 08:59:06;;;;;;;8.07;1.27;;;20.50;99.90;;;;;;4971756;28;20173;-58
2022/08/22 09:01:44;;;;;;;9.13;1.33;;;20.80;99.90;;;;;;4967502;28;20046;-57
2022/08/22 09:04:15;;;;;;;11.07;2.17;;;21.00;99.90;;;;;;4968605;28;20030;-58
2022/08/22 09:07:20;;;;;;;5.68;1.27;;;21.30;99.90;;;;;;4961451;28;20046;-59
2022/08/22 09:10:07;;;;;;;9.68;1.52;;;21.30;99.90;;;;;;4961995;28;20031;-57
2022/08/22 09:13:01;;;;;;;5.85;1.10;;;21.30;99.90;;;;;;4964988;28;20125;-58
2022/08/22 09:16:03;;;;;;;6.63;1.48;;;21.30;99.90;;;;;;4973285;28;20493;-59
2022/08/22 09:18:36;;;;;;;6.80;1.75;;;21.30;99.90;;;;;;4967461;28;20035;-59
2022/08/22 09:21:18;;;;;;;12.20;1.88;;;21.20;99.90;;;;;;4958236;28;20074;-59
2022/08/22 09:24:08;;;;;;;9.32;1.40;;;21.30;99.90;;;;;;4968322;28;20065;-58
2022/08/22 09:27:00;;;;;;;6.05;1.40;;;21.30;99.90;;;;;;4967224;28;20070;-59
2022/08/22 09:29:29;;;;;;;6.25;1.50;;;21.30;99.90;;;;;;4968887;28;20478;-58
2022/08/22 09:32:33;;;;;;;7.65;1.50;;;21.20;99.90;;;;;;4967714;28;20122;-58
2022/08/22 09:35:17;;;;;;;8.82;1.70;;;21.30;99.90;;;;;;4966245;28;20034;-59
2022/08/22 09:38:01;;;;;;;10.45;1.60;;;21.50;99.90;;;;;;4972786;28;20030;-58
2022/08/22 09:41:08;;;;;;;4.72;1.75;;;21.60;99.90;;;;;;4966469;28;20065;-58
2022/08/22 09:43:42;;;;;;;5.10;1.00;;;21.60;99.90;;;;;;4969383;28;20034;-59
2022/08/22 09:46:22;;;;;;;8.48;1.88;;;21.80;99.90;;;;;;4970576;28;20505;-59
2022/08/22 09:49:09;;;;;;;4.43;0.90;;;21.90;99.90;;;;;;4970564;28;20038;-59
2022/08/22 09:51:43;;;;;;;4.07;1.10;;;22.10;99.90;;;;;;4973969;28;20027;-59
2022/08/22 09:54:08;;;;;;;6.53;1.30;;;21.90;99.90;;;;;;4965127;28;20038;-57
2022/08/22 09:56:52;;;;;;;3.13;0.88;;;22.00;99.90;;;;;;4972153;28;20435;-58
2022/08/22 09:59:21;;;;;;;7.10;1.77;;;21.70;99.90;;;;;;4965871;28;20402;-59
2022/08/22 10:02:10;;;;;;;9.88;2.15;;;21.50;99.90;;;;;;4969760;28;20081;-58
2022/08/22 10:04:55;;;;;;;4.80;1.52;;;21.60;99.90;;;;;;4965731;28;20065;-58
2022/08/22 10:07:58;;;;;;;6.30;1.52;;;21.80;99.90;;;;;;4971922;28;20039;-59
2022/08/22 10:10:24;;;;;;;8.63;1.25;;;21.70;99.90;;;;;;4972278;28;20030;-59
2022/08/22 10:13:19;;;;;;;6.72;1.13;;;22.20;99.90;;;;;;4963922;28;20171;-59
2022/08/22 10:15:58;;;;;;;5.03;1.13;;;22.60;99.90;;;;;;4965514;28;20098;-57
2022/08/22 10:18:43;;;;;;;7.80;0.98;;;22.80;99.90;;;;;;4974755;28;20035;-58
2022/08/22 10:21:20;;;;;;;6.22;1.38;;;22.80;99.90;;;;;;4981716;28;20031;-58
2022/08/22 10:24:27;;;;;;;4.80;1.17;;;23.00;99.90;;;;;;4971569;28;20943;-58
2022/08/22 10:26:56;;;;;;;3.13;0.90;;;22.90;99.90;;;;;;4968390;28;20039;-57
2022/08/22 10:29:42;;;;;;;5.00;0.70;;;23.10;99.90;;;;;;4985046;28;20117;-58
2022/08/22 10:32:08;;;;;;;5.75;1.10;;;23.20;99.90;;;;;;4959568;28;20393;-58
2022/08/22 10:34:43;;;;;;;9.00;1.45;;;23.00;99.90;;;;;;4973580;28;20052;-57
2022/08/22 10:37:14;;;;;;;4.45;1.17;;;23.10;99.90;;;;;;4975176;28;20114;-57
2022/08/22 10:39:49;;;;;;;5.63;0.95;;;23.10;99.90;;;;;;4972092;28;20046;-59
2022/08/22 10:42:26;;;;;;;5.75;1.08;;;23.50;99.90;;;;;;4959375;28;20050;-59
2022/08/22 10:45:21;;;;;;;6.38;1.52;;;23.80;99.90;;;;;;4973189;28;20031;-57
2022/08/22 10:47:52;;;;;;;5.07;0.93;;;23.90;99.90;;;;;;4969449;28;20601;-58
2022/08/22 10:50:28;;;;;;;5.93;1.10;;;24.10;99.90;;;;;;4978447;28;20087;-59
2022/08/22 10:53:30;;;;;;;4.38;1.80;;;24.00;99.90;;;;;;4975482;28;20064;-57
2022/08/22 10:56:21;;;;;;;9.15;1.98;;;23.90;99.90;;;;;;4892576;29;20769;-57
2022/08/22 10:59:14;;;;;;;10.93;2.00;;;23.80;99.90;;;;;;4888709;29;20029;-58
2022/08/22 11:01:54;;;;;;;12.93;2.13;;;23.60;99.90;;;;;;4898352;29;20339;-58
2022/08/22 11:04:45;;;;;;;8.57;2.05;;;23.10;99.90;;;;;;4897471;29;20040;-58
2022/08/22 11:07:30;;;;;;;8.88;1.90;;;23.10;99.90;;;;;;4890087;29;20064;-59
2022/08/22 11:10:04;;;;;;;12.70;3.50;;;23.10;99.90;;;;;;4889753;29;20036;-59
2022/08/22 11:12:36;;;;;;;9.50;2.08;;;23.80;99.90;;;;;;4897832;29;20043;-58
2022/08/22 11:15:42;;;;;;;9.98;1.88;;;24.20;99.90;;;;;;4897484;29;20029;-60
2022/08/22 11:18:38;;;;;;;10.13;2.20;;;24.70;99.90;;;;;;4890135;29;20021;-58
2022/08/22 11:21:17;;;;;;;7.93;2.60;;;25.30;99.90;;;;;;4890789;29;20039;-58
2022/08/22 11:24:21;;;;;;;7.93;2.33;;;25.40;99.90;;;;;;4892373;29;20036;-58
2022/08/22 11:27:05;;;;;;;9.48;1.73;;;25.80;99.90;;;;;;4856594;29;20438;-58
2022/08/22 11:30:04;;;;;;;6.13;1.85;;;25.60;99.90;;;;;;4855008;29;20539;-58
2022/08/22 11:32:45;;;;;;;4.57;1.35;;;24.90;99.90;;;;;;4891879;29;20157;-57
2022/08/22 11:35:22;;;;;;;4.60;1.55;;;24.40;99.90;;;;;;4913028;29;20044;-58
2022/08/22 11:38:09;;;;;;;8.63;1.77;;;24.40;99.90;;;;;;4905200;29;20114;-58
2022/08/22 11:40:41;;;;;;;4.60;2.00;;;24.40;99.90;;;;;;4910031;29;20032;-58
2022/08/22 11:43:16;;;;;;;;;;;24.50;99.90;;;;;;4916653;29;20043;-58
2022/08/22 11:45:50;;;;;;;5.45;1.30;;;24.80;99.90;;;;;;4915885;29;19979;-59
2022/08/22 11:48:27;;;;;;;8.15;2.53;;;24.90;99.90;;;;;;4911716;29;20119;-60
2022/08/22 11:51:14;;;;;;;8.65;2.92;;;25.00;99.90;;;;;;4909457;29;20488;-58
2022/08/22 11:53:48;;;;;;;8.77;1.90;;;24.70;99.90;;;;;;4908100;29;20388;-57
2022/08/22 11:56:35;;;;;;;5.38;2.55;;;24.80;99.90;;;;;;4913621;29;20040;-57
2022/08/22 11:59:16;;;;;;;7.25;1.50;;;25.00;99.90;;;;;;4909146;29;20028;-58
2022/08/22 12:02:00;;;;;;;6.00;1.60;;;25.80;99.90;;;;;;4916033;29;20040;-59
2022/08/22 12:04:51;;;;;;;7.00;1.70;;;26.40;99.90;;;;;;4956708;28;20388;-58
2022/08/22 12:07:20;;;;;;;8.52;2.97;;;27.00;99.90;;;;;;4973684;28;20050;-57
2022/08/22 12:09:50;;;;;;;4.47;1.40;;;27.10;99.90;;;;;;4967946;28;20394;-58
2022/08/22 12:12:28;;;;;;;4.10;1.40;;;26.90;99.90;;;;;;4977387;28;20038;-57
2022/08/22 12:15:05;;;;;;;6.32;1.88;;;26.20;99.90;;;;;;4971298;28;20031;-58
2022/08/22 12:18:13;;;;;;;6.88;1.23;;;26.80;99.90;;;;;;4964833;28;20034;-58
2022/08/22 12:20:44;;;;;;;7.18;1.50;;;27.30;99.50;;;;;;4975621;28;20120;-58
2022/08/22 12:23:13;;;;;;;5.88;1.10;;;27.10;99.20;;;;;;4972669;28;20108;-59
2022/08/22 12:26:19;;;;;;;5.68;1.42;;;27.40;98.40;;;;;;4970016;28;20127;-58
2022/08/22 12:29:03;;;;;;;4.38;1.50;;;26.90;98.10;;;;;;4967859;28;20053;-57
2022/08/22 12:31:43;;;;;;;4.15;1.10;;;26.90;98.60;;;;;;4975331;28;20343;-59
2022/08/22 12:34:42;;;;;;;6.03;1.60;;;26.50;99.00;;;;;;4980731;28;20042;-57
2022/08/22 12:37:14;;;;;;;6.80;1.40;;;26.20;99.60;;;;;;4963186;28;20568;-57
2022/08/22 12:40:10;;;;;;;8.27;2.05;;;26.00;99.90;;;;;;4966801;28;20101;-58
2022/08/22 12:43:27;;;;;;;5.25;1.48;;;25.80;99.90;;;;;;4970215;28;20058;-59
2022/08/22 12:46:07;;;;;;;5.72;1.27;;;26.10;99.80;;;;;;4955649;28;20030;-59
2022/08/22 12:49:06;;;;;;;5.80;1.23;;;25.90;99.90;;;;;;4974605;28;20062;-59
2022/08/22 12:51:51;;;;;;;6.38;1.40;;;25.50;99.90;;;;;;4969003;28;20050;-58
2022/08/22 12:54:52;;;;;;;6.72;1.58;;;25.10;99.90;;;;;;4977654;28;20050;-59
2022/08/22 12:57:33;;;;;;;7.47;1.95;;;24.70;99.90;;;;;;4979383;28;20034;-59
2022/08/22 13:00:30;;;;;;;8.25;1.20;;;24.70;99.90;;;;;;4977285;28;20462;-59
2022/08/22 13:03:00;;;;;;;8.82;1.10;;;24.70;99.90;;;;;;4965116;28;20062;-59
2022/08/22 13:05:28;;;;;;;5.35;1.92;;;24.40;99.90;;;;;;4974238;28;20031;-59
2022/08/22 13:07:58;;;;;;;7.28;1.30;;;24.40;99.90;;;;;;4973695;28;20068;-58
2022/08/22 13:10:44;;;;;;;5.80;1.30;;;24.60;99.90;;;;;;4975823;28;20022;-58
2022/08/22 13:13:14;;;;;;;6.22;1.77;;;24.90;99.90;;;;;;4979613;28;20433;-59
2022/08/22 13:15:56;;;;;;;7.20;1.40;;;24.90;99.90;;;;;;4980604;28;20537;-59
2022/08/22 13:18:26;;;;;;;7.38;1.40;;;25.00;99.90;;;;;;4978878;28;20216;-59
2022/08/22 13:20:55;;;;;;;5.85;2.03;;;25.30;99.90;;;;;;4979800;28;20496;-59
2022/08/22 13:23:29;;;;;;;11.27;1.20;;;25.40;99.90;;;;;;4980707;28;20022;-59
2022/08/22 13:26:04;;;;;;;5.55;1.77;;;25.70;99.90;;;;;;4972235;28;20037;-58
2022/08/22 13:28:33;;;;;;;6.18;1.27;;;25.60;99.90;;;;;;4981109;28;20363;-58
2022/08/22 13:31:02;;;;;;;6.75;1.60;;;25.20;99.90;;;;;;4974918;28;20073;-58
2022/08/22 13:33:37;;;;;;;8.88;2.22;;;25.10;99.90;;;;;;4978592;28;20046;-60
2022/08/22 13:36:11;;;;;;;3.58;1.50;;;24.70;99.90;;;;;;4971746;28;20026;-59
2022/08/22 13:38:56;;;;;;;2.88;1.15;;;24.50;99.90;;;;;;4975339;28;20030;-59
2022/08/22 13:41:29;;;;;;;7.30;1.40;;;24.40;99.90;;;;;;4971301;28;20572;-59
2022/08/22 13:44:15;;;;;;;7.57;1.33;;;24.60;99.90;;;;;;4968769;28;20100;-58
2022/08/22 13:46:42;;;;;;;8.50;1.63;;;24.50;99.90;;;;;;4973360;28;20101;-58
2022/08/22 13:49:15;;;;;;;7.72;1.90;;;24.60;99.90;;;;;;4982921;28;20390;-58
2022/08/22 13:52:10;;;;;;;7.10;1.60;;;25.20;99.90;;;;;;4967961;28;20432;-58
2022/08/22 13:54:42;;;;;;;8.30;2.03;;;25.10;99.90;;;;;;4977361;28;20049;-59
2022/08/22 13:57:34;;;;;;;12.35;1.52;;;25.10;99.90;;;;;;4971512;28;20031;-59